METAR Data
IDs: Format: Raw Decoded Include TAF

Data at: 1343 UTC 10 Aug 2022

KMOD 101253Z AUTO 34007KT 10SM CLR 16/13 A3001 RMK AO2 SLP160 T01610133
KMOD 101153Z AUTO 34006KT 10SM CLR 17/13 A3000 RMK AO2 SLP158 T01670133 10206 20167 51008
KMOD 101053Z AUTO 34007KT 10SM CLR 17/13 A2999 RMK AO2 SLP155 T01670133
KMOD 100953Z AUTO 34010KT 10SM CLR 17/13 A2999 RMK AO2 SLP153 T01720133
KMOD 100853Z AUTO 33010KT 10SM CLR 18/13 A2998 RMK AO2 SLP149 T01780128 50005
KMOD 100753Z AUTO 34009KT 10SM CLR 18/13 A2998 RMK AO2 SLP151 T01830133 403220172
KMOD 100653Z AUTO 33010KT 10SM CLR 19/13 A2997 RMK AO2 SLP148 T01890128
KMOD 100553Z AUTO 34010KT 10SM CLR 21/12 A2996 RMK AO2 SLP145 T02060117 10317 20206 53020
KMOD 100453Z AUTO 32013KT 10SM CLR 22/10 A2994 RMK AO2 SLP138 T02220100
KMOD 100353Z 32014G20KT 10SM CLR 23/11 A2992 RMK AO2 SLP130 T02330106
KMOD 100253Z 34013KT 10SM CLR 27/12 A2990 RMK AO2 SLP124 T02670117 53009
KMOD 100153Z 33012KT 10SM CLR 30/11 A2988 RMK AO2 SLP116 T03000111
KMOD 100053Z 32012KT 10SM CLR 31/09 A2988 RMK AO2 SLP116 T03110089
KMOD 092353Z 33009KT 10SM CLR 31/10 A2987 RMK AO2 SLP115 T03110100 10322 20228 56015
KMOD 092253Z 31009KT 10SM CLR 32/10 A2988 RMK AO2 SLP117 T03170100
KMOD 092153Z 33011G15KT 10SM CLR 31/11 A2990 RMK AO2 SLP122 T03110106
KMOD 092053Z VRB05KT 10SM CLR 29/11 A2992 RMK AO2 SLP129 T02940111 58012
KMOD 091953Z COR 31008KT 10SM CLR 28/12 A2993 RMK AO2 SLP135 T02830122 $
KMOD 091853Z 35007KT 10SM CLR 26/12 A2994 RMK AO2 SLP139 T02610122
KMOD 091753Z 34006KT 10SM CLR 23/12 A2995 RMK AO2 SLP141 T02280122 10233 20172 51004
KMOD 091653Z 34012KT 10SM CLR 22/11 A2995 RMK AO2 SLP140 T02220111
KMOD 091553Z 33010KT 10SM CLR 21/12 A2995 RMK AO2 SLP141 T02110122
KMOD 091453Z 35009KT 10SM CLR 19/12 A2994 RMK AO2 SLP137 T01890122 53013
KMOD 091353Z 36008KT 10SM CLR 18/13 A2993 RMK AO2 SLP132 T01780128
KMOD 091253Z AUTO 35008KT 10SM CLR 18/12 A2991 RMK AO2 SLP128 T01780122
KMOD 091153Z AUTO 33009KT 10SM CLR 18/12 A2990 RMK AO2 SLP124 T01830122 10233 20183 53002
KMOD 091053Z AUTO 34008KT 10SM CLR 19/13 A2989 RMK AO2 SLP121 T01890133
KMOD 090953Z AUTO 36005KT 10SM CLR 19/13 A2989 RMK AO2 SLP120 T01940133
KMOD 090853Z AUTO 35007KT 10SM CLR 20/13 A2990 RMK AO2 SLP122 T02000133 50002
KMOD 090753Z AUTO 35006KT 10SM CLR 21/13 A2990 RMK AO2 SLP124 T02060128 403280161
KMOD 090653Z AUTO 35008KT 10SM CLR 22/12 A2990 RMK AO2 SLP122 T02170117
KMOD 090553Z AUTO 34009KT 10SM CLR 23/11 A2989 RMK AO2 SLP121 T02280111 10328 20228 50009
KMOD 090453Z AUTO 34010KT 10SM CLR 24/10 A2989 RMK AO2 SLP121 T02440100
KMOD 090353Z 33010KT 10SM CLR 26/09 A2988 RMK AO2 SLP115 T02560094
KMOD 090253Z 33010KT 10SM CLR 28/09 A2986 RMK AO2 SLP111 T02780089 53003
KMOD 090153Z 33013KT 10SM CLR 30/13 A2985 RMK AO2 SLP106 T03000128